sensor_id;sensor_type;location;lat;lon;timestamp;P1;durP1;ratioP1;P2;durP2;ratioP2
81834;SDS011;71272;52.166;4.498;2023-07-16T00:00:03;11.37;;;2.90;;
81834;SDS011;71272;52.166;4.498;2023-07-16T00:02:29;13.40;;;4.47;;
81834;SDS011;71272;52.166;4.498;2023-07-16T00:04:55;10.07;;;3.45;;
81834;SDS011;71272;52.166;4.498;2023-07-16T00:07:20;11.27;;;3.27;;
81834;SDS011;71272;52.166;4.498;2023-07-16T00:09:45;13.45;;;2.92;;
81834;SDS011;71272;52.166;4.498;2023-07-16T00:12:11;10.83;;;3.10;;
81834;SDS011;71272;52.166;4.498;2023-07-16T00:14:36;10.57;;;2.90;;
81834;SDS011;71272;52.166;4.498;2023-07-16T00:17:01;10.50;;;3.20;;
81834;SDS011;71272;52.166;4.498;2023-07-16T00:19:27;11.77;;;4.55;;
81834;SDS011;71272;52.166;4.498;2023-07-16T00:21:52;12.00;;;3.33;;
81834;SDS011;71272;52.166;4.498;2023-07-16T00:24:17;10.50;;;4.47;;
81834;SDS011;71272;52.166;4.498;2023-07-16T00:26:43;9.97;;;3.93;;
81834;SDS011;71272;52.166;4.498;2023-07-16T00:29:08;10.20;;;3.73;;
81834;SDS011;71272;52.166;4.498;2023-07-16T00:31:34;11.75;;;3.88;;
81834;SDS011;71272;52.166;4.498;2023-07-16T00:33:59;9.13;;;3.57;;
81834;SDS011;71272;52.166;4.498;2023-07-16T00:36:25;13.57;;;3.47;;
81834;SDS011;71272;52.166;4.498;2023-07-16T00:38:50;14.60;;;4.43;;
81834;SDS011;71272;52.166;4.498;2023-07-16T00:41:15;15.07;;;4.10;;
81834;SDS011;71272;52.166;4.498;2023-07-16T00:43:41;10.18;;;4.07;;
81834;SDS011;71272;52.166;4.498;2023-07-16T00:46:06;12.05;;;3.95;;
81834;SDS011;71272;52.166;4.498;2023-07-16T00:48:33;13.68;;;3.92;;
81834;SDS011;71272;52.166;4.498;2023-07-16T00:50:59;17.13;;;4.95;;
81834;SDS011;71272;52.166;4.498;2023-07-16T00:53:25;14.23;;;4.35;;
81834;SDS011;71272;52.166;4.498;2023-07-16T00:55:51;14.40;;;4.80;;
81834;SDS011;71272;52.166;4.498;2023-07-16T00:58:16;8.68;;;4.10;;
81834;SDS011;71272;52.166;4.498;2023-07-16T01:00:42;13.43;;;4.90;;
81834;SDS011;71272;52.166;4.498;2023-07-16T01:03:08;10.15;;;4.28;;
81834;SDS011;71272;52.166;4.498;2023-07-16T01:05:38;14.23;;;4.30;;
81834;SDS011;71272;52.166;4.498;2023-07-16T01:11:04;23.58;;;4.57;;
81834;SDS011;71272;52.166;4.498;2023-07-16T01:13:30;14.88;;;4.68;;
81834;SDS011;71272;52.166;4.498;2023-07-16T01:15:55;10.50;;;4.10;;
81834;SDS011;71272;52.166;4.498;2023-07-16T01:18:21;11.75;;;4.53;;
81834;SDS011;71272;52.166;4.498;2023-07-16T01:20:46;13.68;;;5.35;;
81834;SDS011;71272;52.166;4.498;2023-07-16T01:32:03;14.88;;;4.60;;
81834;SDS011;71272;52.166;4.498;2023-07-16T01:34:31;19.52;;;5.38;;
81834;SDS011;71272;52.166;4.498;2023-07-16T01:37:02;12.70;;;4.88;;
81834;SDS011;71272;52.166;4.498;2023-07-16T01:39:28;15.50;;;5.43;;
81834;SDS011;71272;52.166;4.498;2023-07-16T01:41:55;13.25;;;4.57;;
81834;SDS011;71272;52.166;4.498;2023-07-16T01:44:21;8.65;;;4.45;;
81834;SDS011;71272;52.166;4.498;2023-07-16T01:46:59;14.00;;;5.68;;
81834;SDS011;71272;52.166;4.498;2023-07-16T01:49:40;16.00;;;4.88;;
81834;SDS011;71272;52.166;4.498;2023-07-16T01:52:06;15.60;;;5.10;;
81834;SDS011;71272;52.166;4.498;2023-07-16T01:54:32;15.90;;;5.03;;
81834;SDS011;71272;52.166;4.498;2023-07-16T01:56:58;21.52;;;4.47;;
81834;SDS011;71272;52.166;4.498;2023-07-16T01:59:23;16.05;;;5.28;;
81834;SDS011;71272;52.166;4.498;2023-07-16T02:01:49;14.70;;;4.72;;
81834;SDS011;71272;52.166;4.498;2023-07-16T02:04:14;13.70;;;4.78;;
81834;SDS011;71272;52.166;4.498;2023-07-16T02:06:39;15.67;;;4.73;;
81834;SDS011;71272;52.166;4.498;2023-07-16T02:09:05;15.77;;;5.53;;
81834;SDS011;71272;52.166;4.498;2023-07-16T02:11:30;18.27;;;6.53;;
81834;SDS011;71272;52.166;4.498;2023-07-16T02:13:55;12.10;;;5.75;;
81834;SDS011;71272;52.166;4.498;2023-07-16T02:16:21;15.23;;;5.67;;
81834;SDS011;71272;52.166;4.498;2023-07-16T02:18:46;11.30;;;4.77;;
81834;SDS011;71272;52.166;4.498;2023-07-16T02:21:11;15.90;;;5.53;;
81834;SDS011;71272;52.166;4.498;2023-07-16T02:23:37;11.45;;;4.53;;
81834;SDS011;71272;52.166;4.498;2023-07-16T02:26:02;17.00;;;5.17;;
81834;SDS011;71272;52.166;4.498;2023-07-16T02:28:27;13.03;;;5.13;;
81834;SDS011;71272;52.166;4.498;2023-07-16T02:30:53;12.17;;;5.53;;
81834;SDS011;71272;52.166;4.498;2023-07-16T02:33:18;16.07;;;6.20;;
81834;SDS011;71272;52.166;4.498;2023-07-16T02:35:47;18.37;;;5.90;;
81834;SDS011;71272;52.166;4.498;2023-07-16T02:38:17;15.18;;;5.65;;
81834;SDS011;71272;52.166;4.498;2023-07-16T02:40:45;15.77;;;5.45;;
81834;SDS011;71272;52.166;4.498;2023-07-16T02:43:12;17.73;;;5.32;;
81834;SDS011;71272;52.166;4.498;2023-07-16T02:45:38;18.23;;;6.00;;
81834;SDS011;71272;52.166;4.498;2023-07-16T02:48:04;15.52;;;5.60;;
81834;SDS011;71272;52.166;4.498;2023-07-16T02:52:58;16.48;;;5.90;;
81834;SDS011;71272;52.166;4.498;2023-07-16T02:55:23;12.20;;;5.10;;
81834;SDS011;71272;52.166;4.498;2023-07-16T02:57:48;14.13;;;5.67;;
81834;SDS011;71272;52.166;4.498;2023-07-16T03:00:14;17.13;;;5.80;;
81834;SDS011;71272;52.166;4.498;2023-07-16T03:02:39;14.80;;;5.45;;
81834;SDS011;71272;52.166;4.498;2023-07-16T03:05:05;14.95;;;5.43;;
81834;SDS011;71272;52.166;4.498;2023-07-16T03:07:30;16.35;;;5.57;;
81834;SDS011;71272;52.166;4.498;2023-07-16T03:09:56;14.83;;;6.30;;
81834;SDS011;71272;52.166;4.498;2023-07-16T03:12:21;17.10;;;6.00;;
81834;SDS011;71272;52.166;4.498;2023-07-16T03:14:46;17.90;;;6.37;;
81834;SDS011;71272;52.166;4.498;2023-07-16T03:17:12;15.40;;;5.65;;
81834;SDS011;71272;52.166;4.498;2023-07-16T03:19:37;13.33;;;6.03;;
81834;SDS011;71272;52.166;4.498;2023-07-16T03:22:02;14.43;;;4.40;;
81834;SDS011;71272;52.166;4.498;2023-07-16T03:24:29;11.68;;;4.50;;
81834;SDS011;71272;52.166;4.498;2023-07-16T03:26:54;13.87;;;4.97;;
81834;SDS011;71272;52.166;4.498;2023-07-16T03:29:19;14.30;;;5.03;;
81834;SDS011;71272;52.166;4.498;2023-07-16T03:31:44;11.23;;;4.50;;
81834;SDS011;71272;52.166;4.498;2023-07-16T03:34:10;15.70;;;4.90;;
81834;SDS011;71272;52.166;4.498;2023-07-16T03:36:35;11.50;;;4.10;;
81834;SDS011;71272;52.166;4.498;2023-07-16T03:39:00;12.03;;;4.40;;
81834;SDS011;71272;52.166;4.498;2023-07-16T03:41:26;11.33;;;4.23;;
81834;SDS011;71272;52.166;4.498;2023-07-16T03:43:51;12.75;;;4.43;;
81834;SDS011;71272;52.166;4.498;2023-07-16T03:46:16;14.37;;;4.90;;
81834;SDS011;71272;52.166;4.498;2023-07-16T03:48:42;12.33;;;4.37;;
81834;SDS011;71272;52.166;4.498;2023-07-16T03:51:07;16.55;;;4.45;;
81834;SDS011;71272;52.166;4.498;2023-07-16T03:53:32;18.20;;;4.57;;
81834;SDS011;71272;52.166;4.498;2023-07-16T03:55:58;13.47;;;4.40;;
81834;SDS011;71272;52.166;4.498;2023-07-16T03:58:23;16.93;;;4.97;;
81834;SDS011;71272;52.166;4.498;2023-07-16T04:00:48;11.80;;;4.23;;
81834;SDS011;71272;52.166;4.498;2023-07-16T04:03:14;10.60;;;3.83;;
81834;SDS011;71272;52.166;4.498;2023-07-16T04:05:39;16.33;;;5.57;;
81834;SDS011;71272;52.166;4.498;2023-07-16T04:08:04;10.43;;;4.17;;
81834;SDS011;71272;52.166;4.498;2023-07-16T04:10:30;10.60;;;4.03;;
81834;SDS011;71272;52.166;4.498;2023-07-16T04:12:55;11.30;;;4.17;;
81834;SDS011;71272;52.166;4.498;2023-07-16T04:15:20;10.40;;;4.37;;
81834;SDS011;71272;52.166;4.498;2023-07-16T04:17:46;14.68;;;5.30;;
81834;SDS011;71272;52.166;4.498;2023-07-16T04:20:11;16.05;;;4.88;;
81834;SDS011;71272;52.166;4.498;2023-07-16T04:22:36;13.43;;;4.45;;
81834;SDS011;71272;52.166;4.498;2023-07-16T04:25:02;18.92;;;5.43;;
81834;SDS011;71272;52.166;4.498;2023-07-16T04:27:28;13.75;;;5.22;;
81834;SDS011;71272;52.166;4.498;2023-07-16T04:29:54;21.95;;;5.97;;
81834;SDS011;71272;52.166;4.498;2023-07-16T04:32:19;12.53;;;4.83;;
81834;SDS011;71272;52.166;4.498;2023-07-16T04:34:44;17.27;;;4.90;;
81834;SDS011;71272;52.166;4.498;2023-07-16T04:37:10;11.93;;;4.20;;
81834;SDS011;71272;52.166;4.498;2023-07-16T04:39:35;18.70;;;6.97;;
81834;SDS011;71272;52.166;4.498;2023-07-16T04:42:00;12.00;;;5.40;;
81834;SDS011;71272;52.166;4.498;2023-07-16T04:44:26;13.47;;;5.23;;
81834;SDS011;71272;52.166;4.498;2023-07-16T04:46:51;17.37;;;5.70;;
81834;SDS011;71272;52.166;4.498;2023-07-16T04:49:16;12.13;;;5.27;;
81834;SDS011;71272;52.166;4.498;2023-07-16T04:51:41;14.00;;;5.53;;
81834;SDS011;71272;52.166;4.498;2023-07-16T04:54:07;16.53;;;5.90;;
81834;SDS011;71272;52.166;4.498;2023-07-16T04:56:32;13.47;;;6.00;;
81834;SDS011;71272;52.166;4.498;2023-07-16T04:58:57;17.77;;;6.13;;
81834;SDS011;71272;52.166;4.498;2023-07-16T05:01:23;12.63;;;4.80;;
81834;SDS011;71272;52.166;4.498;2023-07-16T05:03:48;14.10;;;5.95;;
81834;SDS011;71272;52.166;4.498;2023-07-16T05:06:13;10.30;;;4.80;;
81834;SDS011;71272;52.166;4.498;2023-07-16T05:08:39;14.68;;;4.55;;
81834;SDS011;71272;52.166;4.498;2023-07-16T05:11:04;9.97;;;4.93;;
81834;SDS011;71272;52.166;4.498;2023-07-16T05:13:29;12.53;;;4.67;;
81834;SDS011;71272;52.166;4.498;2023-07-16T05:15:55;14.70;;;5.33;;
81834;SDS011;71272;52.166;4.498;2023-07-16T05:18:20;12.80;;;5.57;;
81834;SDS011;71272;52.166;4.498;2023-07-16T05:20:47;12.40;;;5.03;;
81834;SDS011;71272;52.166;4.498;2023-07-16T05:23:13;10.55;;;4.25;;
81834;SDS011;71272;52.166;4.498;2023-07-16T05:25:38;12.98;;;5.35;;
81834;SDS011;71272;52.166;4.498;2023-07-16T05:28:04;11.98;;;4.60;;
81834;SDS011;71272;52.166;4.498;2023-07-16T05:30:29;14.00;;;4.90;;
81834;SDS011;71272;52.166;4.498;2023-07-16T05:32:55;13.45;;;4.43;;
81834;SDS011;71272;52.166;4.498;2023-07-16T05:35:20;9.67;;;4.60;;
81834;SDS011;71272;52.166;4.498;2023-07-16T05:37:45;9.17;;;3.87;;
81834;SDS011;71272;52.166;4.498;2023-07-16T05:40:11;11.63;;;4.50;;
81834;SDS011;71272;52.166;4.498;2023-07-16T05:42:36;11.25;;;4.38;;
81834;SDS011;71272;52.166;4.498;2023-07-16T05:45:01;8.73;;;3.80;;
81834;SDS011;71272;52.166;4.498;2023-07-16T05:47:27;12.18;;;4.38;;
81834;SDS011;71272;52.166;4.498;2023-07-16T05:49:52;10.70;;;4.60;;
81834;SDS011;71272;52.166;4.498;2023-07-16T05:52:18;8.63;;;4.40;;
81834;SDS011;71272;52.166;4.498;2023-07-16T05:54:43;12.00;;;4.50;;
81834;SDS011;71272;52.166;4.498;2023-07-16T05:57:10;9.70;;;3.92;;
81834;SDS011;71272;52.166;4.498;2023-07-16T05:59:35;10.95;;;4.22;;
81834;SDS011;71272;52.166;4.498;2023-07-16T06:02:02;12.55;;;4.40;;
81834;SDS011;71272;52.166;4.498;2023-07-16T06:04:30;12.98;;;4.47;;
81834;SDS011;71272;52.166;4.498;2023-07-16T06:06:56;10.73;;;4.95;;
81834;SDS011;71272;52.166;4.498;2023-07-16T06:09:21;10.75;;;5.57;;
81834;SDS011;71272;52.166;4.498;2023-07-16T06:11:47;9.53;;;3.97;;
81834;SDS011;71272;52.166;4.498;2023-07-16T06:14:13;12.15;;;5.18;;
81834;SDS011;71272;52.166;4.498;2023-07-16T06:16:38;12.40;;;5.30;;
81834;SDS011;71272;52.166;4.498;2023-07-16T06:19:03;13.00;;;4.63;;
81834;SDS011;71272;52.166;4.498;2023-07-16T06:21:29;14.37;;;5.33;;
81834;SDS011;71272;52.166;4.498;2023-07-16T06:23:54;12.83;;;4.60;;
81834;SDS011;71272;52.166;4.498;2023-07-16T06:26:19;9.80;;;5.67;;
81834;SDS011;71272;52.166;4.498;2023-07-16T06:28:45;11.70;;;4.50;;
81834;SDS011;71272;52.166;4.498;2023-07-16T06:31:14;10.30;;;4.43;;
81834;SDS011;71272;52.166;4.498;2023-07-16T06:33:39;15.13;;;4.68;;
81834;SDS011;71272;52.166;4.498;2023-07-16T06:36:05;12.40;;;4.60;;
81834;SDS011;71272;52.166;4.498;2023-07-16T06:38:30;16.03;;;4.63;;
81834;SDS011;71272;52.166;4.498;2023-07-16T06:40:55;13.30;;;4.80;;
81834;SDS011;71272;52.166;4.498;2023-07-16T06:43:21;11.50;;;4.73;;
81834;SDS011;71272;52.166;4.498;2023-07-16T06:45:48;11.88;;;4.35;;
81834;SDS011;71272;52.166;4.498;2023-07-16T06:48:14;10.00;;;4.53;;
81834;SDS011;71272;52.166;4.498;2023-07-16T06:50:40;11.73;;;3.70;;
81834;SDS011;71272;52.166;4.498;2023-07-16T06:53:05;11.45;;;4.45;;
81834;SDS011;71272;52.166;4.498;2023-07-16T06:55:30;11.93;;;4.43;;
81834;SDS011;71272;52.166;4.498;2023-07-16T06:57:56;12.03;;;4.53;;
81834;SDS011;71272;52.166;4.498;2023-07-16T07:00:21;12.17;;;4.77;;
81834;SDS011;71272;52.166;4.498;2023-07-16T07:02:46;9.93;;;4.37;;
81834;SDS011;71272;52.166;4.498;2023-07-16T07:05:12;18.27;;;5.10;;
81834;SDS011;71272;52.166;4.498;2023-07-16T07:07:37;9.95;;;4.57;;
81834;SDS011;71272;52.166;4.498;2023-07-16T07:10:02;10.88;;;5.00;;
81834;SDS011;71272;52.166;4.498;2023-07-16T07:12:28;13.88;;;4.35;;
81834;SDS011;71272;52.166;4.498;2023-07-16T07:14:53;17.08;;;4.72;;
81834;SDS011;71272;52.166;4.498;2023-07-16T07:17:19;15.27;;;4.72;;
81834;SDS011;71272;52.166;4.498;2023-07-16T07:19:44;11.52;;;4.30;;
81834;SDS011;71272;52.166;4.498;2023-07-16T07:22:10;11.10;;;4.03;;
81834;SDS011;71272;52.166;4.498;2023-07-16T07:24:35;17.08;;;5.63;;
81834;SDS011;71272;52.166;4.498;2023-07-16T07:27:01;10.82;;;4.72;;
81834;SDS011;71272;52.166;4.498;2023-07-16T07:29:26;10.57;;;4.38;;
81834;SDS011;71272;52.166;4.498;2023-07-16T07:31:52;17.58;;;4.93;;
81834;SDS011;71272;52.166;4.498;2023-07-16T07:34:18;8.88;;;4.20;;
81834;SDS011;71272;52.166;4.498;2023-07-16T07:36:43;13.95;;;4.72;;
81834;SDS011;71272;52.166;4.498;2023-07-16T07:39:08;14.90;;;5.20;;
81834;SDS011;71272;52.166;4.498;2023-07-16T07:41:34;9.03;;;4.50;;
81834;SDS011;71272;52.166;4.498;2023-07-16T07:43:59;10.88;;;4.93;;
81834;SDS011;71272;52.166;4.498;2023-07-16T07:46:24;10.07;;;4.93;;
81834;SDS011;71272;52.166;4.498;2023-07-16T07:48:50;15.38;;;5.88;;
81834;SDS011;71272;52.166;4.498;2023-07-16T07:51:15;11.27;;;4.97;;
81834;SDS011;71272;52.166;4.498;2023-07-16T07:53:40;11.97;;;4.83;;
81834;SDS011;71272;52.166;4.498;2023-07-16T07:56:06;14.53;;;4.40;;
81834;SDS011;71272;52.166;4.498;2023-07-16T07:58:31;10.03;;;4.27;;
81834;SDS011;71272;52.166;4.498;2023-07-16T08:00:56;14.97;;;4.13;;
81834;SDS011;71272;52.166;4.498;2023-07-16T08:03:22;10.85;;;4.07;;
81834;SDS011;71272;52.166;4.498;2023-07-16T08:05:50;15.43;;;4.53;;
81834;SDS011;71272;52.166;4.498;2023-07-16T08:08:16;12.98;;;5.13;;
81834;SDS011;71272;52.166;4.498;2023-07-16T08:10:42;17.07;;;4.37;;
81834;SDS011;71272;52.166;4.498;2023-07-16T08:13:07;11.98;;;4.13;;
81834;SDS011;71272;52.166;4.498;2023-07-16T08:15:33;8.30;;;4.27;;
81834;SDS011;71272;52.166;4.498;2023-07-16T08:18:00;16.88;;;4.47;;
81834;SDS011;71272;52.166;4.498;2023-07-16T08:20:26;9.73;;;4.00;;
81834;SDS011;71272;52.166;4.498;2023-07-16T08:22:51;9.27;;;3.72;;
81834;SDS011;71272;52.166;4.498;2023-07-16T08:25:18;8.45;;;3.42;;
81834;SDS011;71272;52.166;4.498;2023-07-16T08:27:44;12.50;;;4.53;;
81834;SDS011;71272;52.166;4.498;2023-07-16T08:30:09;9.10;;;3.07;;
81834;SDS011;71272;52.166;4.498;2023-07-16T08:32:34;11.80;;;3.70;;
81834;SDS011;71272;52.166;4.498;2023-07-16T08:35:00;8.93;;;3.40;;
81834;SDS011;71272;52.166;4.498;2023-07-16T08:37:25;8.07;;;3.10;;
81834;SDS011;71272;52.166;4.498;2023-07-16T08:39:51;14.10;;;4.63;;
81834;SDS011;71272;52.166;4.498;2023-07-16T08:42:18;11.77;;;4.13;;
81834;SDS011;71272;52.166;4.498;2023-07-16T08:44:44;11.85;;;3.95;;
81834;SDS011;71272;52.166;4.498;2023-07-16T08:47:10;10.93;;;4.10;;
81834;SDS011;71272;52.166;4.498;2023-07-16T08:49:35;12.95;;;4.22;;
81834;SDS011;71272;52.166;4.498;2023-07-16T08:52:06;10.48;;;4.68;;
81834;SDS011;71272;52.166;4.498;2023-07-16T08:54:35;12.65;;;4.40;;
81834;SDS011;71272;52.166;4.498;2023-07-16T08:57:01;9.38;;;3.83;;
81834;SDS011;71272;52.166;4.498;2023-07-16T08:59:26;11.82;;;4.95;;
81834;SDS011;71272;52.166;4.498;2023-07-16T09:01:53;10.55;;;4.68;;
81834;SDS011;71272;52.166;4.498;2023-07-16T09:04:18;17.65;;;4.75;;
81834;SDS011;71272;52.166;4.498;2023-07-16T09:06:44;10.48;;;4.50;;
81834;SDS011;71272;52.166;4.498;2023-07-16T09:09:19;14.80;;;4.53;;
81834;SDS011;71272;52.166;4.498;2023-07-16T09:11:46;12.77;;;4.80;;
81834;SDS011;71272;52.166;4.498;2023-07-16T09:14:14;12.55;;;4.78;;
81834;SDS011;71272;52.166;4.498;2023-07-16T09:16:51;9.52;;;4.78;;
81834;SDS011;71272;52.166;4.498;2023-07-16T09:19:19;12.65;;;3.72;;
81834;SDS011;71272;52.166;4.498;2023-07-16T09:21:48;10.10;;;3.40;;
81834;SDS011;71272;52.166;4.498;2023-07-16T09:24:20;8.10;;;4.18;;
81834;SDS011;71272;52.166;4.498;2023-07-16T09:26:52;11.35;;;3.55;;
81834;SDS011;71272;52.166;4.498;2023-07-16T09:29:18;10.57;;;4.25;;
81834;SDS011;71272;52.166;4.498;2023-07-16T09:32:18;14.48;;;3.85;;
81834;SDS011;71272;52.166;4.498;2023-07-16T09:34:36;11.90;;;3.70;;
81834;SDS011;71272;52.166;4.498;2023-07-16T09:37:03;13.48;;;4.38;;
81834;SDS011;71272;52.166;4.498;2023-07-16T09:39:30;16.52;;;4.35;;
81834;SDS011;71272;52.166;4.498;2023-07-16T09:41:57;12.85;;;4.07;;
81834;SDS011;71272;52.166;4.498;2023-07-16T09:44:23;10.68;;;3.47;;
81834;SDS011;71272;52.166;4.498;2023-07-16T09:46:48;12.00;;;3.60;;
81834;SDS011;71272;52.166;4.498;2023-07-16T09:49:14;10.88;;;3.20;;
81834;SDS011;71272;52.166;4.498;2023-07-16T09:51:40;14.10;;;4.05;;
81834;SDS011;71272;52.166;4.498;2023-07-16T09:54:08;11.95;;;3.97;;
81834;SDS011;71272;52.166;4.498;2023-07-16T09:56:38;14.18;;;4.43;;
81834;SDS011;71272;52.166;4.498;2023-07-16T09:59:08;16.80;;;4.20;;
81834;SDS011;71272;52.166;4.498;2023-07-16T10:01:38;12.18;;;4.10;;
81834;SDS011;71272;52.166;4.498;2023-07-16T10:04:13;12.25;;;3.88;;
81834;SDS011;71272;52.166;4.498;2023-07-16T10:06:51;11.93;;;4.20;;
81834;SDS011;71272;52.166;4.498;2023-07-16T10:09:33;14.68;;;3.95;;
81834;SDS011;71272;52.166;4.498;2023-07-16T10:12:13;8.55;;;3.70;;
81834;SDS011;71272;52.166;4.498;2023-07-16T10:14:49;10.65;;;3.47;;
81834;SDS011;71272;52.166;4.498;2023-07-16T10:17:17;11.02;;;3.67;;
81834;SDS011;71272;52.166;4.498;2023-07-16T10:19:50;15.27;;;4.35;;
81834;SDS011;71272;52.166;4.498;2023-07-16T10:22:15;9.55;;;2.80;;
81834;SDS011;71272;52.166;4.498;2023-07-16T10:24:42;9.10;;;2.78;;
81834;SDS011;71272;52.166;4.498;2023-07-16T10:27:08;9.75;;;3.05;;
81834;SDS011;71272;52.166;4.498;2023-07-16T10:29:34;10.90;;;2.97;;
81834;SDS011;71272;52.166;4.498;2023-07-16T10:32:01;16.08;;;4.20;;
81834;SDS011;71272;52.166;4.498;2023-07-16T10:34:27;11.13;;;3.15;;
81834;SDS011;71272;52.166;4.498;2023-07-16T10:36:52;12.00;;;3.08;;
81834;SDS011;71272;52.166;4.498;2023-07-16T10:39:18;11.88;;;2.80;;
81834;SDS011;71272;52.166;4.498;2023-07-16T10:41:46;7.55;;;2.50;;
81834;SDS011;71272;52.166;4.498;2023-07-16T10:44:13;15.13;;;2.80;;
81834;SDS011;71272;52.166;4.498;2023-07-16T10:46:41;9.60;;;3.03;;
81834;SDS011;71272;52.166;4.498;2023-07-16T10:49:10;10.15;;;2.83;;
81834;SDS011;71272;52.166;4.498;2023-07-16T10:51:35;10.60;;;2.15;;
81834;SDS011;71272;52.166;4.498;2023-07-16T10:56:30;8.30;;;2.10;;
81834;SDS011;71272;52.166;4.498;2023-07-16T10:59:00;10.20;;;2.50;;
81834;SDS011;71272;52.166;4.498;2023-07-16T11:01:32;7.32;;;1.80;;
81834;SDS011;71272;52.166;4.498;2023-07-16T11:04:01;10.00;;;2.60;;
81834;SDS011;71272;52.166;4.498;2023-07-16T11:06:26;13.00;;;2.58;;
81834;SDS011;71272;52.166;4.498;2023-07-16T11:08:52;8.18;;;2.38;;
81834;SDS011;71272;52.166;4.498;2023-07-16T11:11:27;11.03;;;2.70;;
81834;SDS011;71272;52.166;4.498;2023-07-16T11:13:53;7.43;;;1.95;;
81834;SDS011;71272;52.166;4.498;2023-07-16T11:16:18;10.20;;;2.50;;
81834;SDS011;71272;52.166;4.498;2023-07-16T11:18:43;9.73;;;2.35;;
81834;SDS011;71272;52.166;4.498;2023-07-16T11:21:09;10.65;;;2.00;;
81834;SDS011;71272;52.166;4.498;2023-07-16T11:23:34;6.57;;;1.90;;
81834;SDS011;71272;52.166;4.498;2023-07-16T11:26:01;5.40;;;1.52;;
81834;SDS011;71272;52.166;4.498;2023-07-16T11:28:36;10.20;;;1.63;;
81834;SDS011;71272;52.166;4.498;2023-07-16T11:31:09;5.90;;;1.63;;
81834;SDS011;71272;52.166;4.498;2023-07-16T11:33:45;5.72;;;1.20;;
81834;SDS011;71272;52.166;4.498;2023-07-16T11:36:11;8.68;;;1.50;;
81834;SDS011;71272;52.166;4.498;2023-07-16T11:38:37;9.07;;;2.00;;
81834;SDS011;71272;52.166;4.498;2023-07-16T11:41:03;6.72;;;1.70;;
81834;SDS011;71272;52.166;4.498;2023-07-16T11:43:33;9.95;;;1.92;;
81834;SDS011;71272;52.166;4.498;2023-07-16T11:46:00;7.65;;;1.83;;
81834;SDS011;71272;52.166;4.498;2023-07-16T11:48:26;8.20;;;1.85;;
81834;SDS011;71272;52.166;4.498;2023-07-16T11:50:51;8.00;;;1.20;;
81834;SDS011;71272;52.166;4.498;2023-07-16T11:53:16;6.93;;;1.60;;
81834;SDS011;71272;52.166;4.498;2023-07-16T11:55:42;4.90;;;1.00;;
81834;SDS011;71272;52.166;4.498;2023-07-16T11:58:07;6.73;;;1.13;;
81834;SDS011;71272;52.166;4.498;2023-07-16T12:00:33;13.60;;;1.90;;
81834;SDS011;71272;52.166;4.498;2023-07-16T12:02:58;7.87;;;1.90;;
81834;SDS011;71272;52.166;4.498;2023-07-16T12:05:23;6.93;;;1.13;;
81834;SDS011;71272;52.166;4.498;2023-07-16T12:07:52;6.32;;;1.70;;
81834;SDS011;71272;52.166;4.498;2023-07-16T12:10:18;11.50;;;1.95;;
81834;SDS011;71272;52.166;4.498;2023-07-16T12:12:44;7.40;;;1.58;;
81834;SDS011;71272;52.166;4.498;2023-07-16T12:15:10;10.15;;;1.95;;
81834;SDS011;71272;52.166;4.498;2023-07-16T12:17:35;10.07;;;1.60;;
81834;SDS011;71272;52.166;4.498;2023-07-16T12:20:01;9.80;;;2.00;;
81834;SDS011;71272;52.166;4.498;2023-07-16T12:22:28;8.90;;;1.77;;
81834;SDS011;71272;52.166;4.498;2023-07-16T12:24:53;7.55;;;1.52;;
81834;SDS011;71272;52.166;4.498;2023-07-16T12:27:19;9.77;;;2.60;;
81834;SDS011;71272;52.166;4.498;2023-07-16T12:29:45;13.07;;;1.90;;
81834;SDS011;71272;52.166;4.498;2023-07-16T12:32:11;16.52;;;2.08;;
81834;SDS011;71272;52.166;4.498;2023-07-16T12:34:36;13.70;;;2.20;;
81834;SDS011;71272;52.166;4.498;2023-07-16T12:37:02;9.35;;;1.85;;
81834;SDS011;71272;52.166;4.498;2023-07-16T12:39:28;7.55;;;1.77;;
81834;SDS011;71272;52.166;4.498;2023-07-16T12:41:53;9.35;;;1.77;;
81834;SDS011;71272;52.166;4.498;2023-07-16T12:44:18;7.77;;;1.60;;
81834;SDS011;71272;52.166;4.498;2023-07-16T12:46:44;8.73;;;1.63;;
81834;SDS011;71272;52.166;4.498;2023-07-16T12:49:09;9.83;;;1.90;;
81834;SDS011;71272;52.166;4.498;2023-07-16T12:51:34;8.40;;;1.80;;
81834;SDS011;71272;52.166;4.498;2023-07-16T12:54:00;10.20;;;1.90;;
81834;SDS011;71272;52.166;4.498;2023-07-16T12:56:26;12.18;;;1.98;;
81834;SDS011;71272;52.166;4.498;2023-07-16T12:58:51;13.20;;;2.13;;
81834;SDS011;71272;52.166;4.498;2023-07-16T13:01:17;6.78;;;1.70;;
81834;SDS011;71272;52.166;4.498;2023-07-16T13:03:42;13.13;;;2.47;;
81834;SDS011;71272;52.166;4.498;2023-07-16T13:06:08;8.43;;;1.67;;
81834;SDS011;71272;52.166;4.498;2023-07-16T13:08:33;9.17;;;1.67;;
81834;SDS011;71272;52.166;4.498;2023-07-16T13:11:00;10.02;;;2.10;;
81834;SDS011;71272;52.166;4.498;2023-07-16T13:13:25;17.42;;;3.00;;
81834;SDS011;71272;52.166;4.498;2023-07-16T13:15:50;11.57;;;1.80;;
81834;SDS011;71272;52.166;4.498;2023-07-16T13:18:16;10.40;;;1.90;;
81834;SDS011;71272;52.166;4.498;2023-07-16T13:20:43;12.18;;;1.95;;
81834;SDS011;71272;52.166;4.498;2023-07-16T13:23:09;14.70;;;2.60;;
81834;SDS011;71272;52.166;4.498;2023-07-16T13:25:35;14.48;;;3.35;;
81834;SDS011;71272;52.166;4.498;2023-07-16T13:28:02;13.48;;;2.72;;
81834;SDS011;71272;52.166;4.498;2023-07-16T13:30:29;15.52;;;3.08;;
81834;SDS011;71272;52.166;4.498;2023-07-16T13:32:54;14.32;;;3.15;;
81834;SDS011;71272;52.166;4.498;2023-07-16T13:35:21;14.13;;;2.95;;
81834;SDS011;71272;52.166;4.498;2023-07-16T13:37:47;19.27;;;3.25;;
81834;SDS011;71272;52.166;4.498;2023-07-16T13:40:13;12.48;;;2.42;;
81834;SDS011;71272;52.166;4.498;2023-07-16T13:42:38;22.42;;;3.70;;
81834;SDS011;71272;52.166;4.498;2023-07-16T13:45:04;16.52;;;2.95;;
81834;SDS011;71272;52.166;4.498;2023-07-16T13:47:31;17.58;;;3.15;;
81834;SDS011;71272;52.166;4.498;2023-07-16T13:49:56;12.02;;;2.95;;
81834;SDS011;71272;52.166;4.498;2023-07-16T13:52:22;15.95;;;3.08;;
81834;SDS011;71272;52.166;4.498;2023-07-16T13:54:47;11.80;;;2.58;;
81834;SDS011;71272;52.166;4.498;2023-07-16T13:57:13;10.20;;;2.38;;
81834;SDS011;71272;52.166;4.498;2023-07-16T13:59:38;8.82;;;2.08;;
81834;SDS011;71272;52.166;4.498;2023-07-16T14:02:04;16.58;;;2.88;;
81834;SDS011;71272;52.166;4.498;2023-07-16T14:04:32;18.52;;;2.65;;
81834;SDS011;71272;52.166;4.498;2023-07-16T14:07:01;11.52;;;2.08;;
81834;SDS011;71272;52.166;4.498;2023-07-16T14:09:26;9.48;;;2.55;;
81834;SDS011;71272;52.166;4.498;2023-07-16T14:11:54;15.85;;;2.25;;
81834;SDS011;71272;52.166;4.498;2023-07-16T14:14:22;14.30;;;2.20;;
81834;SDS011;71272;52.166;4.498;2023-07-16T14:16:50;9.95;;;2.30;;
81834;SDS011;71272;52.166;4.498;2023-07-16T14:19:18;17.48;;;3.00;;
81834;SDS011;71272;52.166;4.498;2023-07-16T14:21:43;12.32;;;2.60;;
81834;SDS011;71272;52.166;4.498;2023-07-16T14:24:09;13.15;;;2.50;;
81834;SDS011;71272;52.166;4.498;2023-07-16T14:26:35;18.10;;;2.67;;
81834;SDS011;71272;52.166;4.498;2023-07-16T14:29:00;17.70;;;2.63;;
81834;SDS011;71272;52.166;4.498;2023-07-16T14:31:26;15.77;;;3.20;;
81834;SDS011;71272;52.166;4.498;2023-07-16T14:33:51;10.80;;;2.08;;
81834;SDS011;71272;52.166;4.498;2023-07-16T14:36:17;11.85;;;2.47;;
81834;SDS011;71272;52.166;4.498;2023-07-16T14:38:42;14.52;;;2.65;;
81834;SDS011;71272;52.166;4.498;2023-07-16T14:41:08;19.20;;;3.83;;
81834;SDS011;71272;52.166;4.498;2023-07-16T14:43:35;12.40;;;2.17;;
81834;SDS011;71272;52.166;4.498;2023-07-16T14:46:00;12.73;;;2.55;;
81834;SDS011;71272;52.166;4.498;2023-07-16T14:48:30;15.63;;;3.00;;